Time;durP1;ratioP1;P1;durP2;ratioP2;P2;SDS_P1;SDS_P2;PMS_P1;PMS_P2;Temp;Humidity;BMP_temperature;BMP_pressure;BME280_temperature;BME280_humidity;BME280_pressure;Samples;Min_cycle;Max_cycle;Signal;HPM_P1;HPM_P2
2022/04/17 01:03:38;;;;;;;5.78;4.35;;;;;;;5.47;54.78;100920.16;6077408;23;20892;-88
2022/04/17 01:06:04;;;;;;;6.30;4.90;;;;;;;5.44;54.68;100909.94;6094049;23;20054;-88
2022/04/17 01:08:30;;;;;;;5.78;4.80;;;;;;;5.42;54.64;100911.50;6094414;23;20014;-88
2022/04/17 01:10:57;;;;;;;6.40;4.40;;;;;;;5.37;54.88;100912.63;6094639;23;20448;-88
2022/04/17 01:13:25;;;;;;;6.60;4.90;;;;;;;5.27;54.87;100898.78;6068622;23;20014;-87
2022/04/17 01:15:52;;;;;;;6.45;5.00;;;;;;;5.20;55.22;100916.00;6068745;23;20011;-88
2022/04/17 01:18:17;;;;;;;5.50;4.80;;;;;;;5.09;55.07;100904.13;6094390;23;20018;-87
2022/04/17 01:20:43;;;;;;;5.80;4.57;;;;;;;5.05;55.45;100906.06;6094375;23;20021;-80
2022/04/17 01:28:36;;;;;;;6.75;4.60;;;;;;;4.88;55.86;100903.91;6092814;23;20010;-80
2022/04/17 01:31:02;;;;;;;6.97;4.63;;;;;;;4.89;56.14;100905.50;6094200;23;20014;-80
2022/04/17 01:33:29;;;;;;;6.40;4.60;;;;;;;4.84;56.07;100908.59;6068921;23;20022;-81
2022/04/17 01:35:55;;;;;;;5.68;4.55;;;;;;;4.80;56.39;100914.06;6094002;23;20019;-82
2022/04/17 01:38:20;;;;;;;7.22;4.75;;;;;;;4.75;56.86;100905.34;6094140;23;20030;-82
2022/04/17 01:40:45;;;;;;;6.82;5.10;;;;;;;4.65;56.75;100891.09;6068917;23;20014;-82
2022/04/17 01:43:11;;;;;;;8.57;4.80;;;;;;;4.66;57.00;100906.44;6068678;23;20002;-82
2022/04/17 01:45:37;;;;;;;7.60;5.03;;;;;;;4.60;57.46;100907.94;6094482;23;20018;-82
2022/04/17 01:48:03;;;;;;;7.07;4.85;;;;;;;4.48;57.15;100899.16;6093698;23;20018;-82
2022/04/17 01:50:30;;;;;;;8.18;5.68;;;;;;;4.43;57.39;100892.03;6069070;23;20021;-82
2022/04/17 01:53:00;;;;;;;6.70;5.30;;;;;;;4.37;57.80;100892.75;6068820;23;20061;-82
2022/04/17 01:55:29;;;;;;;6.60;5.13;;;;;;;4.40;57.78;100906.53;6094362;23;20085;-82
2022/04/17 01:57:56;;;;;;;6.95;4.90;;;;;;;4.24;58.15;100875.72;6093743;23;20019;-82
2022/04/17 02:00:23;;;;;;;6.80;4.78;;;;;;;4.11;58.64;100882.63;6094503;23;20002;-81
2022/04/17 02:02:48;;;;;;;5.97;4.68;;;;;;;4.23;58.55;100896.13;6089581;23;20089;-81
2022/04/17 02:05:15;;;;;;;6.05;4.70;;;;;;;4.17;58.95;100894.84;6123905;23;20057;-81
2022/04/17 02:07:40;;;;;;;6.80;4.70;;;;;;;4.14;58.96;100898.34;6125126;23;20020;-81
2022/04/17 02:10:06;;;;;;;6.57;4.78;;;;;;;4.08;59.61;100906.13;6099261;23;20084;-81
2022/04/17 02:12:33;;;;;;;6.72;4.85;;;;;;;4.03;59.80;100900.16;6099487;23;20014;-81
2022/04/17 02:15:02;;;;;;;7.07;4.95;;;;;;;3.97;60.02;100893.41;6075860;23;20086;-81
2022/04/17 02:17:27;;;;;;;6.05;4.32;;;;;;;3.89;60.44;100887.03;6125598;23;20010;-81
2022/04/17 02:19:53;;;;;;;6.40;5.00;;;;;;;3.83;60.45;100882.25;6125139;23;20014;-81
2022/04/17 02:22:18;;;;;;;6.68;4.90;;;;;;;3.76;61.01;100880.19;6125317;23;20014;-81
2022/04/17 02:24:44;;;;;;;7.22;4.85;;;;;;;3.72;61.48;100866.41;6125492;23;20010;-81
2022/04/17 02:27:10;;;;;;;7.88;5.00;;;;;;;3.73;62.33;100878.16;6125093;23;20018;-81
2022/04/17 02:29:36;;;;;;;6.50;5.10;;;;;;;3.68;63.19;100870.28;6125280;23;20006;-81
2022/04/17 02:32:02;;;;;;;6.93;4.80;;;;;;;3.64;63.61;100880.41;6125022;23;20514;-81
2022/04/17 02:34:27;;;;;;;6.25;4.90;;;;;;;3.57;64.42;100864.63;6099292;23;20344;-81
2022/04/17 02:36:53;;;;;;;6.75;4.47;;;;;;;3.44;65.19;100849.53;6125267;23;20085;-89
2022/04/17 02:39:18;;;;;;;6.93;5.00;;;;;;;3.51;65.72;100854.34;6099401;23;20089;-89
2022/04/17 02:44:28;;;;;;;;;;;;;;;3.47;66.60;100865.28;6103904;23;20014;-89
2022/04/17 02:49:37;;;;;;;8.57;4.97;;;;;;;3.40;67.22;100858.88;6125064;23;20017;-89
2022/04/17 02:52:04;;;;;;;8.27;5.68;;;;;;;3.46;67.72;100869.16;6125121;23;20013;-88
2022/04/17 02:54:30;;;;;;;8.35;5.45;;;;;;;3.37;68.07;100859.59;6125275;23;20506;-89
2022/04/17 02:56:55;;;;;;;6.43;5.15;;;;;;;3.40;68.58;100870.63;6051090;23;20096;-89
2022/04/17 02:59:21;;;;;;;8.15;5.65;;;;;;;3.35;68.57;100862.72;6098699;23;20064;-89
2022/04/17 03:07:15;;;;;;;6.95;5.35;;;;;;;3.31;69.06;100867.38;6103062;23;20018;-89
2022/04/17 03:09:41;;;;;;;6.60;5.75;;;;;;;3.37;69.29;100876.84;6124653;23;20659;-89
2022/04/17 03:12:06;;;;;;;6.78;5.60;;;;;;;3.34;69.16;100861.13;6098749;23;20089;-89
2022/04/17 03:14:32;;;;;;;6.65;5.50;;;;;;;3.36;68.83;100872.50;6098857;23;20417;-90
2022/04/17 03:16:57;;;;;;;7.35;5.60;;;;;;;3.38;68.90;100872.97;6124425;23;20388;-89
2022/04/17 03:19:23;;;;;;;8.50;5.70;;;;;;;3.38;69.14;100878.44;6123864;23;20014;-89
2022/04/17 03:21:48;;;;;;;7.93;5.20;;;;;;;3.34;69.37;100887.78;6096687;23;20009;-89
2022/04/17 03:24:15;;;;;;;7.15;5.50;;;;;;;3.28;69.49;100873.56;6096762;23;20014;-89
2022/04/17 03:26:41;;;;;;;7.65;5.55;;;;;;;3.25;69.58;100871.56;6123720;23;20045;-88
2022/04/17 03:29:07;;;;;;;8.90;5.18;;;;;;;3.21;70.23;100885.22;6123179;23;20092;-89
2022/04/17 03:31:32;;;;;;;8.45;5.88;;;;;;;3.15;70.44;100891.38;6124818;23;20384;-90
2022/04/17 03:33:57;;;;;;;6.45;4.95;;;;;;;3.05;70.60;100881.03;6074500;23;20531;-90
2022/04/17 03:36:23;;;;;;;6.80;5.57;;;;;;;3.09;70.88;100901.06;6124450;23;20041;-89
2022/04/17 03:38:48;;;;;;;7.15;5.57;;;;;;;3.06;71.24;100896.31;6124467;23;20006;-88
2022/04/17 03:41:14;;;;;;;7.18;5.75;;;;;;;2.91;71.81;100880.78;6124578;23;20528;-88
2022/04/17 03:43:39;;;;;;;9.25;6.00;;;;;;;2.93;72.13;100894.91;6124119;23;20010;-87
2022/04/17 03:46:05;;;;;;;7.82;5.47;;;;;;;2.92;72.40;100885.09;6124474;23;20050;-88
2022/04/17 03:48:30;;;;;;;7.43;5.80;;;;;;;2.88;72.66;100889.72;6098398;23;20013;-89
2022/04/17 03:50:56;;;;;;;9.15;6.07;;;;;;;2.85;72.96;100887.72;6096447;23;20020;-89
2022/04/17 03:53:21;;;;;;;7.75;5.93;;;;;;;2.80;73.39;100880.59;6098662;23;20002;-88
2022/04/17 03:55:47;;;;;;;8.18;5.97;;;;;;;2.86;73.59;100890.09;6124543;23;20022;-88
2022/04/17 03:58:12;;;;;;;6.72;6.00;;;;;;;2.77;74.04;100882.09;6124111;23;20448;-88
2022/04/17 04:00:38;;;;;;;8.98;5.90;;;;;;;2.84;74.36;100884.19;6124246;23;20006;-88
2022/04/17 04:03:04;;;;;;;8.18;6.50;;;;;;;2.88;74.04;100884.22;6097790;23;20018;-89
2022/04/17 04:05:29;;;;;;;8.45;6.63;;;;;;;2.88;74.07;100881.50;6124066;23;20021;-88
2022/04/17 04:07:55;;;;;;;7.18;6.03;;;;;;;2.89;74.25;100883.88;6098127;23;20538;-89
2022/04/17 04:10:21;;;;;;;8.88;6.05;;;;;;;2.90;74.06;100885.47;6124247;23;20010;-89
2022/04/17 04:12:46;;;;;;;7.47;5.65;;;;;;;2.94;73.90;100891.00;6124245;23;20006;-89
2022/04/17 04:15:12;;;;;;;8.77;6.00;;;;;;;2.92;74.43;100882.34;6123978;23;20108;-90
2022/04/17 04:17:37;;;;;;;8.23;6.22;;;;;;;2.87;74.27;100880.72;6124006;23;20033;-89
2022/04/17 04:20:04;;;;;;;8.60;6.22;;;;;;;2.91;74.77;100878.03;6123535;23;20388;-90
2022/04/17 04:22:30;;;;;;;9.70;6.50;;;;;;;2.81;74.94;100874.75;6123633;23;20021;-89
2022/04/17 04:24:55;;;;;;;9.13;6.80;;;;;;;2.86;75.33;100883.81;6123999;23;20010;-89
2022/04/17 04:30:05;;;;;;;10.90;6.75;;;;;;;2.93;75.29;100892.16;6123497;23;20083;-89
2022/04/17 04:32:30;;;;;;;8.77;6.68;;;;;;;2.94;74.90;100901.97;6124126;23;20500;-81
2022/04/17 04:35:02;;;;;;;7.43;6.45;;;;;;;2.90;74.94;100895.63;6097913;23;20428;-81
2022/04/17 04:37:28;;;;;;;10.40;6.30;;;;;;;2.96;74.94;100897.69;6123336;23;20351;-81
2022/04/17 04:39:53;;;;;;;9.93;6.43;;;;;;;3.00;74.95;100903.25;6096832;23;20100;-81
2022/04/17 04:42:20;;;;;;;9.50;7.13;;;;;;;3.02;74.77;100903.69;6097833;23;20010;-81
2022/04/17 04:44:47;;;;;;;15.40;8.82;;;;;;;3.05;75.04;100902.94;6123509;23;20010;-81
2022/04/17 04:47:13;;;;;;;9.95;7.22;;;;;;;3.08;74.31;100899.47;6073724;23;20088;-81
2022/04/17 04:49:39;;;;;;;10.30;7.20;;;;;;;3.11;74.74;100885.06;6097536;23;20014;-81
2022/04/17 04:52:04;;;;;;;9.07;7.00;;;;;;;3.07;74.11;100892.44;6124557;23;20014;-88
2022/04/17 04:54:31;;;;;;;12.73;10.82;;;;;;;3.17;74.28;100905.50;6123379;23;20036;-89
2022/04/17 04:56:57;;;;;;;10.32;7.55;;;;;;;3.17;73.66;100905.50;6097529;23;20339;-89
2022/04/17 04:59:23;;;;;;;8.38;5.82;;;;;;;3.05;73.32;100875.53;6123775;23;20085;-88
2022/04/17 05:01:49;;;;;;;10.15;6.55;;;;;;;3.18;73.29;100896.13;6096986;23;20097;-88
2022/04/17 05:04:17;;;;;;;7.78;6.43;;;;;;;3.21;73.03;100912.63;6123138;23;20026;-89
2022/04/17 05:06:43;;;;;;;7.40;6.30;;;;;;;3.26;72.85;100909.59;6097523;23;20022;-88
2022/04/17 05:09:09;;;;;;;8.88;6.50;;;;;;;3.34;73.26;100910.50;6123452;23;20452;-88
2022/04/17 05:11:34;;;;;;;7.15;5.82;;;;;;;3.34;72.72;100905.00;6074033;23;20016;-89
2022/04/17 05:14:00;;;;;;;9.50;7.53;;;;;;;3.43;72.78;100922.03;6073640;23;20021;-89
2022/04/17 05:16:25;;;;;;;9.02;7.07;;;;;;;3.49;72.64;100923.28;6123741;23;20428;-89
2022/04/17 05:19:18;;;;;;;7.07;6.18;;;;;;;3.55;71.98;100913.59;6123378;23;20454;-89
2022/04/17 05:21:36;;;;;;;10.23;7.13;;;;;;;3.53;72.19;100907.66;6102281;23;20491;-89
2022/04/17 05:24:02;;;;;;;12.90;8.85;;;;;;;3.65;71.90;100915.69;6122870;23;20010;-90
2022/04/17 05:26:29;;;;;;;15.45;9.65;;;;;;;3.68;72.29;100914.94;6097991;23;20030;-89
2022/04/17 05:28:56;;;;;;;10.88;7.78;;;;;;;3.75;71.86;100925.25;6098095;23;20347;-89
2022/04/17 05:31:22;;;;;;;8.13;6.65;;;;;;;3.80;71.95;100924.16;6123444;23;20041;-88
2022/04/17 05:33:47;;;;;;;11.00;7.32;;;;;;;3.84;71.54;100916.75;6123515;23;20436;-89
2022/04/17 05:36:13;;;;;;;9.38;6.60;;;;;;;3.83;71.44;100909.69;6123243;23;19998;-89
2022/04/17 05:38:39;;;;;;;9.60;7.00;;;;;;;3.92;70.48;100929.44;6123442;23;20139;-89
2022/04/17 05:41:04;;;;;;;9.75;6.68;;;;;;;3.96;71.13;100925.56;6123059;23;20417;-89
2022/04/17 05:43:30;;;;;;;11.15;7.18;;;;;;;3.99;70.92;100933.06;6123057;23;20021;-89
2022/04/17 05:45:57;;;;;;;10.35;6.60;;;;;;;3.98;69.78;100922.44;6097814;23;20348;-89
2022/04/17 05:48:23;;;;;;;10.23;7.03;;;;;;;4.07;69.62;100926.50;6097572;23;20010;-81
2022/04/17 05:50:48;;;;;;;12.15;7.38;;;;;;;4.09;69.37;100935.16;6123495;23;20088;-81
2022/04/17 05:53:14;;;;;;;10.13;7.35;;;;;;;4.16;69.82;100923.50;6097090;23;20377;-81
2022/04/17 05:55:40;;;;;;;8.25;6.50;;;;;;;4.25;69.40;100923.97;6123150;23;20009;-82
2022/04/17 05:58:05;;;;;;;12.05;7.05;;;;;;;4.33;69.68;100931.16;6097022;23;20033;-81
2022/04/17 06:00:31;;;;;;;9.50;6.85;;;;;;;4.37;69.09;100915.50;6123483;23;20071;-81
2022/04/17 06:02:56;;;;;;;10.45;7.28;;;;;;;4.47;69.40;100934.09;6122435;23;20467;-81
2022/04/17 06:05:22;;;;;;;9.27;6.78;;;;;;;4.48;68.49;100919.19;6123128;23;20010;-82
2022/04/17 06:07:48;;;;;;;9.82;7.53;;;;;;;4.58;68.68;100929.50;6123181;23;20165;-81
2022/04/17 06:10:14;;;;;;;8.70;6.72;;;;;;;4.58;67.37;100924.00;6122721;23;20081;-81
2022/04/17 06:12:40;;;;;;;8.05;6.78;;;;;;;4.74;67.16;100923.78;6097061;23;20420;-81
2022/04/17 06:15:07;;;;;;;8.77;6.50;;;;;;;4.93;66.85;100926.38;6122721;23;20037;-81
2022/04/17 06:17:40;;;;;;;9.57;6.90;;;;;;;5.01;66.41;100929.97;6073305;23;20018;-81
2022/04/17 06:20:11;;;;;;;8.93;7.23;;;;;;;5.01;65.80;100938.22;6093442;23;20380;-82
2022/04/17 06:22:37;;;;;;;8.93;7.18;;;;;;;5.05;65.43;100937.09;6070933;23;20010;-81
2022/04/17 06:25:09;;;;;;;9.70;7.22;;;;;;;5.11;66.37;100940.28;6094219;23;20013;-81
2022/04/17 06:27:45;;;;;;;9.35;6.68;;;;;;;5.19;66.34;100947.44;6121125;23;20385;-81
2022/04/17 06:30:19;;;;;;;12.30;7.20;;;;;;;5.23;65.45;100947.47;6094195;23;20045;-81
2022/04/17 06:32:45;;;;;;;;;;;;;;;5.21;65.84;100938.81;6121780;23;20037;-82
2022/04/17 06:35:12;;;;;;;9.68;6.50;;;;;;;5.20;64.82;100928.97;6070848;23;20327;-81
2022/04/17 06:37:54;;;;;;;10.15;7.22;;;;;;;5.32;65.32;100937.72;6095194;23;20096;-82
2022/04/17 06:40:22;;;;;;;10.90;7.50;;;;;;;5.41;65.00;100938.22;6094649;23;20021;-80
2022/04/17 06:42:50;;;;;;;9.98;7.68;;;;;;;5.47;64.25;100931.19;6095585;23;20010;-81
2022/04/17 06:45:16;;;;;;;9.98;7.57;;;;;;;5.60;64.02;100926.97;6120163;23;20009;-87
2022/04/17 06:47:42;;;;;;;10.00;6.55;;;;;;;5.73;63.64;100923.91;6095275;23;20081;-87
2022/04/17 06:50:08;;;;;;;10.02;7.38;;;;;;;5.85;62.42;100918.88;6119461;23;20384;-87
2022/04/17 06:52:34;;;;;;;10.18;8.30;;;;;;;6.11;62.43;100912.34;6094849;23;20085;-87
2022/04/17 06:54:59;;;;;;;12.23;8.13;;;;;;;6.46;61.27;100909.78;6096372;23;20436;-87
2022/04/17 06:57:32;;;;;;;11.75;7.88;;;;;;;6.59;59.96;100923.22;6095105;23;20168;-88
2022/04/17 06:59:58;;;;;;;8.50;7.43;;;;;;;6.79;59.45;100927.22;6121588;23;20029;-85
2022/04/17 07:02:24;;;;;;;8.32;6.80;;;;;;;6.91;57.35;100926.88;6091382;23;20274;-87
2022/04/17 07:04:50;;;;;;;10.25;6.20;;;;;;;6.94;56.96;100923.31;6093568;23;20341;-87
2022/04/17 07:07:16;;;;;;;8.77;6.60;;;;;;;6.89;55.86;100918.19;6092205;23;20101;-87
2022/04/17 07:09:42;;;;;;;8.48;5.93;;;;;;;6.85;56.99;100920.13;6093220;23;20089;-87
2022/04/17 07:12:07;;;;;;;8.45;6.30;;;;;;;6.98;57.92;100918.59;6092794;23;20097;-87
2022/04/17 07:14:33;;;;;;;7.75;6.13;;;;;;;7.25;57.21;100894.19;6067783;23;20010;-87
2022/04/17 07:16:58;;;;;;;8.20;6.20;;;;;;;7.56;56.02;100920.22;6092592;23;20764;-88
2022/04/17 07:19:24;;;;;;;8.93;6.18;;;;;;;7.81;55.24;100904.41;6092656;23;20148;-88
2022/04/17 07:21:50;;;;;;;9.05;6.22;;;;;;;8.06;54.85;100896.84;6092951;23;20006;-88
2022/04/17 07:24:16;;;;;;;8.48;6.15;;;;;;;8.30;51.72;100901.53;6092677;23;20025;-88
2022/04/17 07:26:41;;;;;;;10.60;6.68;;;;;;;8.30;52.99;100900.75;6093454;23;20022;-86
2022/04/17 07:29:07;;;;;;;8.77;6.53;;;;;;;8.65;52.49;100900.63;6066950;23;20097;-88
2022/04/17 07:31:33;;;;;;;7.15;6.13;;;;;;;8.73;51.38;100895.81;6092746;23;19998;-88
2022/04/17 07:33:58;;;;;;;8.60;6.03;;;;;;;8.95;50.75;100894.50;6091613;23;20018;-88
2022/04/17 07:36:24;;;;;;;8.93;6.47;;;;;;;9.27;50.48;100883.97;6067840;23;20421;-86
2022/04/17 07:38:49;;;;;;;8.38;6.00;;;;;;;9.43;49.04;100883.44;6092528;23;20357;-87
2022/04/17 07:41:15;;;;;;;7.32;6.20;;;;;;;9.72;48.86;100886.75;6092863;23;20012;-86
2022/04/17 07:43:41;;;;;;;9.40;6.53;;;;;;;9.91;48.09;100888.94;6071157;23;20006;-87
2022/04/17 07:46:06;;;;;;;8.15;5.63;;;;;;;10.01;47.41;100882.50;6068364;23;20021;-87
2022/04/17 07:48:31;;;;;;;10.43;7.25;;;;;;;10.28;45.62;100879.84;6065539;23;20116;-86
2022/04/17 07:50:57;;;;;;;9.88;7.15;;;;;;;10.17;46.29;100868.88;6064592;23;20341;-86
2022/04/17 07:53:23;;;;;;;7.57;6.10;;;;;;;10.17;46.73;100862.53;6091919;23;20018;-86
2022/04/17 07:55:50;;;;;;;7.43;5.70;;;;;;;10.26;46.09;100865.59;6091533;23;20006;-85
2022/04/17 07:58:32;;;;;;;7.32;5.90;;;;;;;10.51;45.25;100876.41;6091423;23;20014;-85
2022/04/17 08:00:57;;;;;;;8.68;6.07;;;;;;;10.51;43.70;100865.31;6065550;23;20074;-85
2022/04/17 08:03:46;;;;;;;9.95;6.05;;;;;;;10.70;43.29;100857.09;6090250;23;20406;-86
2022/04/17 08:06:15;;;;;;;7.28;5.45;;;;;;;10.84;43.43;100858.88;6069792;23;20349;-85
2022/04/17 08:08:40;;;;;;;6.85;5.30;;;;;;;11.08;43.02;100863.25;6091792;23;20018;-86
2022/04/17 08:11:07;;;;;;;7.85;5.53;;;;;;;11.48;42.78;100853.09;6065117;23;20476;-85
2022/04/17 08:13:33;;;;;;;10.05;4.85;;;;;;;11.89;41.25;100863.88;6065458;23;20357;-86
2022/04/17 08:15:59;;;;;;;7.13;5.05;;;;;;;11.98;39.94;100852.97;6063182;23;20007;-88
2022/04/17 08:18:25;;;;;;;7.03;5.00;;;;;;;11.91;38.45;100855.13;6093172;23;20014;-88
2022/04/17 08:20:51;;;;;;;6.35;4.70;;;;;;;11.86;38.33;100853.59;6092794;23;20006;-88
2022/04/17 08:23:17;;;;;;;6.75;4.45;;;;;;;11.85;35.97;100842.94;6092804;23;20089;-87
2022/04/17 08:25:43;;;;;;;6.25;4.63;;;;;;;11.74;37.52;100850.66;6068044;23;20025;-86
2022/04/17 08:28:09;;;;;;;5.70;4.57;;;;;;;11.51;37.83;100848.69;6067112;23;20019;-86
2022/04/17 08:30:35;;;;;;;6.78;5.35;;;;;;;11.51;38.88;100841.13;6067079;23;20022;-87
2022/04/17 08:33:04;;;;;;;6.10;4.25;;;;;;;11.75;37.62;100836.34;6067296;23;20007;-86
2022/04/17 08:35:30;;;;;;;6.55;4.47;;;;;;;11.76;37.44;100829.59;6092279;23;20014;-86
2022/04/17 08:38:02;;;;;;;5.07;3.90;;;;;;;11.85;37.32;100824.22;6092081;23;20018;-87
2022/04/17 08:40:28;;;;;;;5.90;4.32;;;;;;;11.79;37.37;100837.06;6090771;23;20041;-87
2022/04/17 08:42:54;;;;;;;6.97;4.28;;;;;;;12.01;37.21;100829.88;6065829;23;20014;-86
2022/04/17 08:45:20;;;;;;;5.93;4.18;;;;;;;12.04;36.52;100829.03;6090366;23;20017;-87
2022/04/17 08:47:46;;;;;;;7.82;4.28;;;;;;;12.22;36.97;100830.66;6090202;23;20022;-87
2022/04/17 08:50:14;;;;;;;6.45;4.97;;;;;;;11.79;36.66;100825.94;6065053;23;20010;-87
2022/04/17 08:52:59;;;;;;;9.18;4.90;;;;;;;11.43;37.70;100827.78;6062896;23;20086;-86
2022/04/17 08:55:25;;;;;;;6.63;4.40;;;;;;;11.83;36.93;100821.09;6063683;23;20033;-86
2022/04/17 08:57:51;;;;;;;6.15;4.40;;;;;;;12.07;36.26;100824.59;6087994;23;20106;-87
2022/04/17 09:00:17;;;;;;;6.20;5.05;;;;;;;12.19;36.62;100823.16;6089720;23;20061;-80
2022/04/17 09:02:44;;;;;;;5.72;4.78;;;;;;;12.18;36.45;100813.25;6089596;23;20011;-81
2022/04/17 09:05:13;;;;;;;9.27;5.00;;;;;;;12.31;37.32;100787.13;6090162;23;20025;-80
2022/04/17 09:07:40;;;;;;;7.10;4.80;;;;;;;12.49;36.95;100803.44;6040728;23;20018;-82
2022/04/17 09:10:06;;;;;;;7.75;5.38;;;;;;;12.99;37.09;100795.50;6088666;23;20587;-81
2022/04/17 09:12:31;;;;;;;7.13;5.22;;;;;;;12.69;35.93;100803.41;6090689;23;20021;-81
2022/04/17 09:14:57;;;;;;;7.70;5.35;;;;;;;12.53;36.74;100784.69;6064529;23;20014;-82
2022/04/17 09:17:30;;;;;;;7.50;5.25;;;;;;;12.30;36.79;100793.13;6065761;23;20016;-81
2022/04/17 09:19:55;;;;;;;6.88;5.55;;;;;;;12.09;35.32;100799.94;6090558;23;20023;-81
2022/04/17 09:22:21;;;;;;;6.28;4.72;;;;;;;12.13;36.09;100792.31;6062443;23;20020;-81
2022/04/17 09:24:46;;;;;;;6.03;5.00;;;;;;;12.31;36.32;100794.69;6088606;23;20010;-81
2022/04/17 09:27:12;;;;;;;8.20;4.93;;;;;;;12.16;35.95;100788.66;6088048;23;20018;-82
2022/04/17 09:29:41;;;;;;;6.85;4.97;;;;;;;11.82;37.04;100786.19;6087027;23;20022;-81
2022/04/17 09:32:12;;;;;;;10.60;5.65;;;;;;;11.97;38.62;100781.13;6061266;23;20017;-81
2022/04/17 09:34:56;;;;;;;6.13;5.53;;;;;;;11.61;37.83;100781.00;6089079;23;20078;-81
2022/04/17 09:37:27;;;;;;;7.25;5.35;;;;;;;11.48;38.10;100788.41;6063455;23;20049;-81
2022/04/17 09:40:05;;;;;;;6.82;5.25;;;;;;;11.75;37.45;100763.31;6065030;23;20337;-81
2022/04/17 09:42:31;;;;;;;6.88;5.32;;;;;;;12.15;36.89;100760.06;6090192;23;20049;-81
2022/04/17 09:44:57;;;;;;;6.60;5.00;;;;;;;11.92;35.33;100751.03;6064649;23;20033;-81
2022/04/17 09:47:27;;;;;;;6.05;4.43;;;;;;;11.48;35.21;100755.84;6087553;23;20026;-81
2022/04/17 09:50:03;;;;;;;7.05;4.53;;;;;;;11.75;36.71;100752.97;6064540;23;20093;-81
2022/04/17 09:52:34;;;;;;;6.53;4.75;;;;;;;12.28;35.45;100742.72;6064767;23;20333;-81
2022/04/17 09:55:00;;;;;;;7.47;4.55;;;;;;;12.53;34.73;100740.94;6088261;23;20037;-82
2022/04/17 09:57:31;;;;;;;5.80;4.47;;;;;;;12.42;35.54;100745.16;6087113;23;20014;-80
2022/04/17 10:00:06;;;;;;;7.30;4.82;;;;;;;12.19;35.57;100742.50;6061667;23;20014;-82
2022/04/17 10:02:31;;;;;;;6.43;4.65;;;;;;;11.61;36.18;100731.75;6062504;23;20066;-81
2022/04/17 10:05:00;;;;;;;6.38;5.13;;;;;;;11.76;36.45;100731.53;6089922;23;20052;-82
2022/04/17 10:07:36;;;;;;;6.70;4.45;;;;;;;12.39;36.10;100723.78;6065171;23;20030;-82
2022/04/17 10:10:07;;;;;;;5.25;3.80;;;;;;;12.65;33.91;100708.84;6084472;23;20103;-81
2022/04/17 10:12:37;;;;;;;6.20;4.10;;;;;;;12.64;34.52;100707.28;6058660;23;20018;-81
2022/04/17 10:15:07;;;;;;;5.43;3.88;;;;;;;12.49;33.03;100708.84;6087591;23;20022;-82
2022/04/17 10:17:33;;;;;;;5.13;3.83;;;;;;;12.55;33.24;100704.31;6089725;23;20018;-82
2022/04/17 10:20:06;;;;;;;5.53;3.53;;;;;;;12.54;33.41;100702.75;6035895;23;20029;-82
2022/04/17 10:22:38;;;;;;;6.97;4.05;;;;;;;12.60;33.13;100689.88;6061011;23;20089;-82
2022/04/17 10:25:08;;;;;;;6.20;4.00;;;;;;;12.94;32.83;100700.56;6088702;23;20007;-82
2022/04/17 10:27:39;;;;;;;4.38;3.65;;;;;;;12.86;32.84;100696.41;6091823;23;20006;-82
2022/04/17 10:30:07;;;;;;;4.60;3.72;;;;;;;12.89;32.82;100687.97;6063933;23;20022;-82
2022/04/17 10:32:33;;;;;;;4.63;3.60;;;;;;;13.18;33.58;100678.88;6062953;23;20065;-82
2022/04/17 10:35:10;;;;;;;5.05;3.72;;;;;;;13.63;33.18;100682.34;6087897;23;20465;-83
2022/04/17 10:37:54;;;;;;;6.85;3.83;;;;;;;13.86;31.44;100684.09;6087256;23;20097;-83
2022/04/17 10:40:21;;;;;;;4.85;4.00;;;;;;;13.30;31.43;100687.28;6088384;23;20019;-82
2022/04/17 10:42:55;;;;;;;5.05;3.92;;;;;;;12.99;31.81;100672.97;6038898;23;20474;-82
2022/04/17 10:45:22;;;;;;;6.30;4.20;;;;;;;12.77;32.34;100671.97;6062325;23;20018;-83
2022/04/17 10:48:08;;;;;;;5.00;4.07;;;;;;;12.82;33.11;100679.75;6091012;23;20361;-82
2022/04/17 10:50:43;;;;;;;6.07;3.88;;;;;;;13.42;33.37;100669.06;6092921;23;20018;-82
2022/04/17 10:53:28;;;;;;;4.97;3.88;;;;;;;13.95;32.81;100667.50;6090879;23;20018;-83
2022/04/17 10:56:07;;;;;;;5.20;4.10;;;;;;;13.67;33.24;100655.16;6092575;23;20063;-82
2022/04/17 10:58:44;;;;;;;5.65;4.10;;;;;;;13.52;31.51;100667.94;6067551;23;20015;-83
2022/04/17 11:01:11;;;;;;;5.97;4.35;;;;;;;13.50;31.45;100657.25;6093770;23;20356;-83
2022/04/17 11:03:37;;;;;;;5.47;4.57;;;;;;;13.63;32.55;100665.63;6091866;23;20023;-82
2022/04/17 11:06:32;;;;;;;5.60;4.35;;;;;;;13.75;31.23;100655.75;6089412;23;20101;-82
2022/04/17 11:09:09;;;;;;;5.57;4.32;;;;;;;13.53;32.47;100655.59;6089350;23;20054;-83
2022/04/17 11:11:39;;;;;;;7.80;5.00;;;;;;;13.37;31.29;100647.28;6068004;23;20018;-83
2022/04/17 11:14:08;;;;;;;6.88;4.47;;;;;;;13.63;32.32;100642.56;6091213;23;20441;-82
2022/04/17 11:16:48;;;;;;;5.05;4.53;;;;;;;13.15;32.17;100635.16;6093585;23;20022;-82
2022/04/17 11:19:16;;;;;;;6.57;5.13;;;;;;;12.47;32.40;100650.06;6091336;23;20081;-82
2022/04/17 11:21:47;;;;;;;6.43;4.60;;;;;;;12.29;33.86;100635.81;6092972;23;20014;-81
2022/04/17 11:24:13;;;;;;;5.90;4.53;;;;;;;12.53;33.33;100634.41;6090871;23;20496;-82
2022/04/17 11:26:53;;;;;;;7.30;5.70;;;;;;;13.04;33.07;100633.44;6091437;23;20018;-82
2022/04/17 11:29:38;;;;;;;5.93;4.65;;;;;;;13.32;31.82;100617.19;6088568;23;20021;-82
2022/04/17 11:32:25;;;;;;;7.30;5.10;;;;;;;13.47;31.23;100618.31;6094524;23;20018;-81
2022/04/17 11:34:54;;;;;;;5.82;4.95;;;;;;;13.60;31.50;100621.13;6069668;23;20433;-81
2022/04/17 11:37:25;;;;;;;7.40;4.80;;;;;;;13.75;32.41;100616.72;6095290;23;20157;-82
2022/04/17 11:39:52;;;;;;;5.85;4.45;;;;;;;13.87;32.07;100619.50;6093048;23;20468;-82
2022/04/17 11:42:18;;;;;;;7.90;5.22;;;;;;;13.93;31.60;100603.78;6093428;23;20412;-83
2022/04/17 11:44:47;;;;;;;5.78;4.78;;;;;;;14.03;30.62;100599.84;6094753;23;20093;-82
2022/04/17 11:47:14;;;;;;;6.45;4.78;;;;;;;14.21;30.89;100615.25;6092519;23;20010;-80
2022/04/17 11:49:40;;;;;;;5.25;4.50;;;;;;;14.45;31.66;100616.47;6065922;23;20429;-80
2022/04/17 11:52:13;;;;;;;5.13;4.50;;;;;;;14.53;32.34;100603.84;6064466;23;20011;-81
2022/04/17 11:54:39;;;;;;;6.53;4.93;;;;;;;14.77;30.42;100601.41;6092696;23;20046;-78
2022/04/17 11:57:05;;;;;;;7.32;4.55;;;;;;;14.65;31.21;100605.03;6091683;23;20006;-81
2022/04/17 11:59:51;;;;;;;6.60;4.43;;;;;;;14.57;30.95;100600.94;6067919;23;20082;-80
2022/04/17 12:02:23;;;;;;;6.82;4.50;;;;;;;14.56;29.53;100597.34;6066323;23;20044;-81
2022/04/17 12:04:53;;;;;;;5.38;4.32;;;;;;;14.56;29.81;100591.75;6089435;23;20022;-81
2022/04/17 12:07:20;;;;;;;5.05;4.40;;;;;;;14.44;30.33;100578.63;6018010;23;20026;-81
2022/04/17 12:09:46;;;;;;;6.40;5.03;;;;;;;14.34;29.95;100596.50;6092331;23;20015;-81
2022/04/17 12:12:13;;;;;;;6.75;4.55;;;;;;;14.63;29.41;100579.59;6092406;23;20016;-81
2022/04/17 12:14:39;;;;;;;6.00;4.68;;;;;;;14.60;30.05;100586.09;6092804;23;20075;-81
2022/04/17 12:17:05;;;;;;;6.60;4.50;;;;;;;14.72;31.52;100577.66;6068019;23;20007;-81
2022/04/17 12:19:31;;;;;;;5.30;4.40;;;;;;;14.74;29.22;100571.63;6021613;23;20022;-81
2022/04/17 12:21:56;;;;;;;5.47;4.22;;;;;;;14.37;28.94;100578.88;6069759;23;20014;-81
2022/04/17 12:24:22;;;;;;;5.65;4.30;;;;;;;14.59;29.89;100568.56;6094471;23;20021;-81
2022/04/17 12:26:48;;;;;;;7.13;4.55;;;;;;;15.07;30.47;100558.84;6095148;23;20023;-81
2022/04/17 12:29:14;;;;;;;5.65;4.85;;;;;;;15.25;29.35;100558.16;6068863;23;20453;-81
2022/04/17 12:31:40;;;;;;;5.18;4.40;;;;;;;15.22;29.65;100540.31;6094888;23;20009;-81
2022/04/17 12:34:10;;;;;;;5.10;4.28;;;;;;;15.01;30.37;100554.28;6068916;23;20356;-81
2022/04/17 12:36:37;;;;;;;6.55;4.78;;;;;;;14.23;29.76;100568.94;6068353;23;20052;-81
2022/04/17 12:39:03;;;;;;;5.65;4.40;;;;;;;14.23;30.05;100557.78;6069198;23;20085;-80
2022/04/17 12:41:37;;;;;;;7.65;4.03;;;;;;;14.42;30.27;100542.03;6069677;23;20421;-81
2022/04/17 12:44:03;;;;;;;5.63;4.18;;;;;;;14.67;30.35;100555.91;6094387;23;20093;-81
2022/04/17 12:46:30;;;;;;;5.45;4.40;;;;;;;14.55;29.72;100534.41;6094372;23;20009;-81
2022/04/17 12:49:10;;;;;;;6.82;4.65;;;;;;;14.24;29.92;100533.44;6094409;23;20072;-81
2022/04/17 12:51:37;;;;;;;6.22;4.90;;;;;;;14.17;29.37;100528.09;6094750;23;20441;-81
2022/04/17 12:54:06;;;;;;;5.38;4.22;;;;;;;13.86;31.00;100525.16;6094642;23;20014;-81